Asau, Samoa

8:18 PM WSST on September 22, 2014 (GMT +1300)
Faleolo International | Change Station
CLOSE
Current Station
Airport
Location: Faleolo,
Elevation: 16 ft
Nearby Weather Stations

Elev 16 ft 13.83 °S, 172.01 °W | Updated 18 minutes ago

Scattered Clouds
Scattered Clouds
79 °F
Feels Like 79 °F
N
4
Wind Variable Wind from SSE

Today
High -- | Low -- °F
--% Chance of Precip.
Yesterday
High -- | Low -- °F
Precip. -- in
6:19 AM 6:26 PM
Waning Crescent, 4% visible
Pressure 29.89 in
Visibility 6.2 miles
Clouds Scattered Clouds 2200 ft
Dew Point 75 °F
Humidity 89%
Rainfall 0.00 in
Snow Depth Not available.
UV 0 out of 12
Pollen Not available.
Air Quality Not available.
Flu Activity Not available.
METAR NSFA 220700Z 16003KT 9999 SCT022 26/24 Q1012

More Conditions Fewer Conditions

Pressure 29.89 in
Visibility 6.2 miles
Clouds Scattered Clouds 2200 ft
Dew Point 75 °F
Humidity 89%
Rainfall 0.00 in
Snow Depth Not available.
UV 0 out of 12
Pollen Not available.
Air Quality Not available.
Flu Activity Not available.
METAR NSFA 220700Z 16003KT 9999 SCT022 26/24 Q1012

More Conditions Fewer Conditions

10-Day Weather Forecast

Almanac

Astronomy

Sep. 22, 2014 Rise Set
Actual Time 6:19 AM WSST 6:26 PM WSST
Civil Twilight 5:58 AM WSST 6:47 PM WSST
Nautical Twilight 5:33 AM WSST 7:12 PM WSST
Astronomical Twilight 5:09 AM WSST 7:37 PM WSST
Moon 4:38 AM WSST 4:45 PM WSST
Length of Visible Light 12h 49m
Length of Day
12h 06m
Tomorrow will be 0m 45s longer.
Waning Crescent, 4% of the Moon is Illuminated
Today
Waning Crescent
Sep 24
New
Oct 1
First Quarter
Oct 8
Full
Oct 15
Last Quarter

Yesterday's Extremes

Country Highs Country Lows

Community

WunderPhotos

Upload Photos

1,755,392 photos uploaded!

Nearby

Snow Depth

Not available.

Earthquake Activity

City Distance Mag. Time & Date
No recent earthquake activity has been reported nearby.
Minimum magnitude displayed is 2.5.

Coastal Water Temperatures

Place Temperature
No Stations Reporting

Nearby Weather Stations